createdAt,value
2023-03-30T00:01:15.099Z,10.49
2023-03-30T00:03:43.536Z,10.60
2023-03-30T00:06:10.978Z,10.68
2023-03-30T00:08:38.198Z,10.87
2023-03-30T00:11:10.126Z,10.84
2023-03-30T00:13:36.947Z,10.28
2023-03-30T00:16:05.353Z,10.50
2023-03-30T00:18:41.312Z,10.45
2023-03-30T00:21:10.006Z,10.27
2023-03-30T00:23:36.905Z,10.57
2023-03-30T00:26:03.774Z,10.52
2023-03-30T00:28:31.152Z,10.62
2023-03-30T00:30:58.002Z,10.53
2023-03-30T00:33:37.282Z,10.51
2023-03-30T00:36:11.049Z,10.60
2023-03-30T00:38:37.524Z,10.71
2023-03-30T00:41:04.339Z,10.61
2023-03-30T00:43:32.861Z,10.54
2023-03-30T00:45:59.499Z,10.88
2023-03-30T00:48:34.788Z,10.48
2023-03-30T00:51:02.380Z,10.58
2023-03-30T00:53:34.736Z,10.51
2023-03-30T00:56:02.538Z,10.50
2023-03-30T00:58:30.014Z,10.59
2023-03-30T01:00:58.651Z,10.64
2023-03-30T01:03:30.442Z,10.76
2023-03-30T01:05:59.009Z,10.74
2023-03-30T01:08:27.242Z,10.92
2023-03-30T01:10:53.961Z,10.85
2023-03-30T01:13:20.482Z,11.04
2023-03-30T01:15:52.795Z,11.08
2023-03-30T01:18:27.604Z,10.87
2023-03-30T01:21:23.189Z,10.74
2023-03-30T01:24:11.650Z,10.71
2023-03-30T01:26:50.519Z,10.64
2023-03-30T01:29:38.843Z,10.82
2023-03-30T01:32:05.271Z,11.18
2023-03-30T01:34:51.771Z,10.79
2023-03-30T01:37:39.720Z,10.71
2023-03-30T01:40:19.097Z,10.76
2023-03-30T01:43:01.435Z,10.54
2023-03-30T01:45:43.152Z,10.74
2023-03-30T01:48:26.239Z,10.97
2023-03-30T01:50:54.256Z,11.04
2023-03-30T01:53:29.579Z,10.74
2023-03-30T01:56:12.483Z,10.84
2023-03-30T01:58:44.107Z,11.13
2023-03-30T02:01:14.414Z,10.91
2023-03-30T02:03:42.421Z,10.76
2023-03-30T02:06:13.945Z,10.74
2023-03-30T02:08:41.136Z,10.95
2023-03-30T02:11:07.844Z,11.07
2023-03-30T02:13:35.853Z,10.91
2023-03-30T02:16:11.825Z,10.96
2023-03-30T02:18:38.811Z,10.82
2023-03-30T02:21:05.801Z,10.72
2023-03-30T02:23:35.743Z,10.87
2023-03-30T02:26:02.718Z,10.82
2023-03-30T02:28:29.227Z,10.77
2023-03-30T02:30:55.825Z,11.03
2023-03-30T02:33:43.740Z,11.10
2023-03-30T02:36:21.115Z,11.26
2023-03-30T02:39:00.186Z,10.67
2023-03-30T02:41:45.628Z,10.97
2023-03-30T02:44:16.170Z,11.09
2023-03-30T02:46:49.620Z,10.78
2023-03-30T02:49:21.599Z,10.56
2023-03-30T02:52:33.787Z,11.26
2023-03-30T02:55:42.136Z,11.05
2023-03-30T02:58:11.916Z,10.91
2023-03-30T03:00:44.531Z,11.05
2023-03-30T03:03:17.189Z,10.88
2023-03-30T03:05:44.867Z,11.32
2023-03-30T03:08:15.666Z,11.15
2023-03-30T03:10:42.126Z,10.95
2023-03-30T03:13:10.085Z,10.54
2023-03-30T03:15:37.999Z,10.91
2023-03-30T03:18:04.556Z,10.68
2023-03-30T03:20:31.069Z,10.70
2023-03-30T03:22:57.505Z,10.92
2023-03-30T03:25:24.055Z,10.61
2023-03-30T03:27:50.619Z,10.71
2023-03-30T03:30:17.126Z,10.60
2023-03-30T03:32:43.609Z,10.63
2023-03-30T03:35:10.476Z,10.44
2023-03-30T03:37:36.925Z,10.68
2023-03-30T03:40:05.816Z,10.57
2023-03-30T03:42:32.270Z,10.71
2023-03-30T03:44:58.737Z,10.74
2023-03-30T03:47:25.357Z,10.56
2023-03-30T03:49:51.921Z,10.70
2023-03-30T03:52:18.353Z,10.45
2023-03-30T03:54:44.812Z,10.72
2023-03-30T03:57:11.314Z,10.73
2023-03-30T03:59:37.846Z,10.94
2023-03-30T04:02:05.531Z,10.70
2023-03-30T04:04:32.227Z,10.74
2023-03-30T04:06:58.733Z,10.59
2023-03-30T04:09:26.020Z,11.13
2023-03-30T04:11:52.472Z,11.25
2023-03-30T04:14:18.992Z,11.30
2023-03-30T04:16:45.545Z,11.06
2023-03-30T04:19:12.776Z,11.20
2023-03-30T04:21:41.142Z,11.12
2023-03-30T04:24:12.202Z,11.58
2023-03-30T04:26:38.939Z,11.27
2023-03-30T04:29:06.811Z,11.57
2023-03-30T04:31:35.570Z,11.69
2023-03-30T04:34:02.726Z,11.35
2023-03-30T04:36:29.579Z,11.49
2023-03-30T04:38:59.734Z,11.29
2023-03-30T04:41:33.577Z,11.59
2023-03-30T04:44:04.566Z,11.33
2023-03-30T04:46:31.398Z,11.55
2023-03-30T04:48:57.974Z,11.28
2023-03-30T04:51:24.618Z,11.50
2023-03-30T04:53:51.347Z,11.37
2023-03-30T04:56:17.896Z,11.48
2023-03-30T04:58:44.466Z,11.37
2023-03-30T05:01:11.000Z,11.51
2023-03-30T05:03:37.835Z,11.57
2023-03-30T05:06:04.708Z,11.50
2023-03-30T05:08:33.387Z,11.14
2023-03-30T05:11:05.211Z,11.30
2023-03-30T05:13:31.929Z,11.31
2023-03-30T05:15:59.450Z,11.51
2023-03-30T05:18:29.954Z,11.44
2023-03-30T05:20:58.444Z,11.46
2023-03-30T05:23:31.699Z,11.02
2023-03-30T05:25:58.246Z,11.28
2023-03-30T05:28:24.752Z,11.24
2023-03-30T05:30:54.895Z,11.20
2023-03-30T05:33:22.239Z,11.20
2023-03-30T05:35:48.799Z,11.18
2023-03-30T05:38:15.348Z,11.59
2023-03-30T05:40:42.336Z,11.57
2023-03-30T05:43:09.448Z,11.42
2023-03-30T05:45:35.990Z,11.24
2023-03-30T05:48:02.657Z,11.29
2023-03-30T05:50:29.207Z,11.37
2023-03-30T05:52:55.686Z,11.32
2023-03-30T05:55:23.748Z,11.44
2023-03-30T05:57:50.279Z,11.42
2023-03-30T06:00:17.116Z,11.76
2023-03-30T06:02:43.694Z,11.58
2023-03-30T06:05:10.211Z,11.69
2023-03-30T06:07:37.547Z,11.74
2023-03-30T06:10:06.151Z,11.51
2023-03-30T06:12:33.726Z,11.25
2023-03-30T06:15:02.991Z,11.55
2023-03-30T06:17:29.924Z,11.28
2023-03-30T06:19:56.546Z,11.15
2023-03-30T06:22:23.367Z,11.52
2023-03-30T06:24:49.871Z,11.61
2023-03-30T06:27:16.928Z,11.52
2023-03-30T06:29:43.635Z,11.70
2023-03-30T06:32:10.164Z,11.48
2023-03-30T06:34:36.623Z,11.58
2023-03-30T06:37:03.377Z,11.16
2023-03-30T06:39:30.020Z,11.41
2023-03-30T06:41:56.716Z,11.78
2023-03-30T06:44:23.742Z,11.60
2023-03-30T06:46:50.331Z,11.66
2023-03-30T06:49:16.822Z,11.79
2023-03-30T06:51:43.386Z,11.94
2023-03-30T06:54:09.887Z,12.02
2023-03-30T06:56:36.352Z,12.08
2023-03-30T06:59:03.066Z,11.77
2023-03-30T07:01:29.583Z,12.14
2023-03-30T07:03:56.604Z,11.82
2023-03-30T07:06:24.326Z,11.93
2023-03-30T07:08:50.847Z,12.01
2023-03-30T07:11:17.305Z,12.37
2023-03-30T07:13:43.817Z,12.47
2023-03-30T07:16:10.387Z,12.36
2023-03-30T07:18:36.872Z,12.40
2023-03-30T07:21:04.644Z,12.53
2023-03-30T07:23:31.658Z,12.59
2023-03-30T07:25:58.138Z,12.71
2023-03-30T07:28:24.657Z,12.74
2023-03-30T07:30:51.651Z,12.56
2023-03-30T07:33:18.745Z,12.38
2023-03-30T07:35:46.268Z,12.10
2023-03-30T07:38:15.464Z,12.39
2023-03-30T07:40:42.442Z,12.66
2023-03-30T07:43:10.374Z,12.60
2023-03-30T07:45:36.823Z,12.72
2023-03-30T07:48:03.611Z,12.52
2023-03-30T07:50:30.866Z,12.80
2023-03-30T07:52:57.346Z,13.06
2023-03-30T07:55:24.069Z,12.91
2023-03-30T07:57:50.602Z,12.92
2023-03-30T08:00:17.303Z,13.17
2023-03-30T08:02:44.848Z,13.04
2023-03-30T08:05:11.499Z,13.09
2023-03-30T08:07:38.240Z,13.10
2023-03-30T08:10:05.272Z,13.28
2023-03-30T08:12:31.765Z,13.18
2023-03-30T08:14:58.534Z,12.93
2023-03-30T08:17:25.068Z,13.06
2023-03-30T08:19:51.645Z,13.43
2023-03-30T08:22:18.428Z,13.38
2023-03-30T08:24:44.913Z,13.30
2023-03-30T08:27:11.395Z,13.72
2023-03-30T08:29:37.889Z,13.50
2023-03-30T08:32:04.473Z,13.46
2023-03-30T08:34:31.051Z,13.32
2023-03-30T08:36:58.161Z,13.63
2023-03-30T08:39:24.889Z,13.71
2023-03-30T08:42:09.895Z,13.82
2023-03-30T08:44:41.896Z,13.74
2023-03-30T08:47:13.917Z,14.15
2023-03-30T08:49:43.480Z,14.09
2023-03-30T08:52:16.717Z,13.66
2023-03-30T08:54:43.298Z,13.59
2023-03-30T08:57:26.563Z,13.71
2023-03-30T09:00:01.147Z,13.83
2023-03-30T09:02:32.966Z,14.18
2023-03-30T09:05:19.155Z,14.26
2023-03-30T09:08:16.433Z,14.32
2023-03-30T09:10:48.038Z,14.78
2023-03-30T09:13:17.370Z,14.03
2023-03-30T09:15:49.773Z,14.47
2023-03-30T09:18:19.491Z,14.68
2023-03-30T09:20:47.104Z,14.84
2023-03-30T09:23:16.401Z,15.25
2023-03-30T09:25:55.676Z,15.38
2023-03-30T09:28:35.048Z,15.09
2023-03-30T09:31:10.943Z,15.16
2023-03-30T09:33:59.065Z,15.71
2023-03-30T09:36:36.205Z,15.72
2023-03-30T09:39:09.602Z,15.36
2023-03-30T09:41:57.750Z,15.60
2023-03-30T09:44:33.911Z,15.03
2023-03-30T09:47:01.151Z,14.89
2023-03-30T09:49:29.350Z,15.67
2023-03-30T09:52:07.743Z,15.74
2023-03-30T09:54:39.225Z,15.46
2023-03-30T09:57:06.014Z,16.17
2023-03-30T09:59:38.615Z,15.60
2023-03-30T10:02:16.468Z,14.97
2023-03-30T10:05:02.934Z,15.42
2023-03-30T10:07:37.780Z,15.60
2023-03-30T10:10:26.957Z,15.91
2023-03-30T10:13:04.574Z,15.82
2023-03-30T10:15:31.700Z,15.65
2023-03-30T10:18:02.368Z,15.60
2023-03-30T10:20:34.232Z,16.20
2023-03-30T10:23:04.816Z,15.79
2023-03-30T10:25:33.502Z,15.29
2023-03-30T10:28:02.807Z,15.37
2023-03-30T10:30:29.660Z,15.18
2023-03-30T10:32:58.563Z,15.88
2023-03-30T10:35:27.365Z,15.74
2023-03-30T10:37:55.804Z,15.59
2023-03-30T10:40:24.377Z,15.68
2023-03-30T10:42:55.499Z,15.22
2023-03-30T10:45:34.914Z,15.93
2023-03-30T10:48:26.530Z,16.22
2023-03-30T10:51:01.817Z,16.00
2023-03-30T10:53:36.749Z,15.55
2023-03-30T10:56:20.277Z,16.77
2023-03-30T10:59:08.139Z,16.22
2023-03-30T11:01:49.832Z,15.83
2023-03-30T11:04:24.498Z,15.92
2023-03-30T11:06:53.635Z,15.30
2023-03-30T11:09:24.496Z,15.20
2023-03-30T11:12:14.045Z,15.17
2023-03-30T11:14:50.673Z,14.80
2023-03-30T11:17:23.724Z,14.47
2023-03-30T11:19:55.862Z,14.48
2023-03-30T11:22:33.658Z,14.29
2023-03-30T11:25:01.110Z,14.23
2023-03-30T11:27:35.599Z,14.25
2023-03-30T11:30:22.249Z,14.29
2023-03-30T11:33:17.845Z,14.66
2023-03-30T11:35:47.743Z,14.88
2023-03-30T11:38:32.498Z,15.55
2023-03-30T11:41:11.718Z,15.22
2023-03-30T11:43:38.279Z,15.28
2023-03-30T11:46:27.779Z,15.20
2023-03-30T11:49:13.497Z,14.90
2023-03-30T11:51:55.991Z,15.20
2023-03-30T11:54:39.042Z,14.80
2023-03-30T11:57:18.430Z,14.65
2023-03-30T12:00:09.840Z,14.56
2023-03-30T12:02:54.710Z,14.49
2023-03-30T12:05:43.436Z,15.24
2023-03-30T12:08:29.216Z,16.16
2023-03-30T12:11:01.584Z,15.90
2023-03-30T12:13:38.103Z,16.25
2023-03-30T12:16:19.864Z,15.90
2023-03-30T12:18:51.379Z,15.33
2023-03-30T12:21:39.590Z,13.38
2023-03-30T12:24:42.986Z,13.46
2023-03-30T12:27:11.729Z,13.54
2023-03-30T12:32:28.669Z,13.89
2023-03-30T12:34:57.421Z,14.38
2023-03-30T12:37:28.707Z,14.17
2023-03-30T12:40:08.856Z,13.92
2023-03-30T12:42:55.839Z,13.46
2023-03-30T12:45:32.081Z,13.13
2023-03-30T12:48:08.990Z,13.23
2023-03-30T12:50:41.909Z,13.31
2023-03-30T12:53:23.720Z,13.33
2023-03-30T12:55:57.553Z,13.20
2023-03-30T12:58:29.926Z,13.52
2023-03-30T13:01:21.350Z,13.15
2023-03-30T13:03:54.357Z,13.26
2023-03-30T13:06:37.539Z,13.68
2023-03-30T13:09:10.264Z,14.20
2023-03-30T13:12:02.968Z,14.31
2023-03-30T13:14:34.160Z,14.70
2023-03-30T13:17:03.631Z,14.60
2023-03-30T13:19:33.376Z,14.24
2023-03-30T13:22:12.359Z,14.16
2023-03-30T13:24:44.558Z,14.53
2023-03-30T13:27:21.032Z,13.98
2023-03-30T13:30:00.403Z,12.96
2023-03-30T13:32:26.885Z,13.58
2023-03-30T13:35:07.744Z,13.17
2023-03-30T13:37:37.466Z,12.76
2023-03-30T13:40:24.574Z,12.72
2023-03-30T13:43:08.023Z,12.45
2023-03-30T13:45:46.597Z,12.71
2023-03-30T13:48:32.007Z,13.36
2023-03-30T13:50:59.790Z,13.86
2023-03-30T13:53:35.528Z,13.36
2023-03-30T13:56:06.916Z,13.16
2023-03-30T13:58:33.917Z,13.72
2023-03-30T14:01:01.962Z,13.98
2023-03-30T14:03:36.294Z,13.64
2023-03-30T14:06:08.505Z,13.67
2023-03-30T14:08:38.320Z,13.25
2023-03-30T14:11:11.439Z,13.21
2023-03-30T14:13:38.319Z,12.65
2023-03-30T14:16:06.621Z,13.04
2023-03-30T14:18:33.599Z,12.42
2023-03-30T14:21:03.308Z,12.51
2023-03-30T14:23:37.297Z,13.05
2023-03-30T14:26:11.758Z,12.09
2023-03-30T14:28:38.583Z,12.30
2023-03-30T14:31:12.818Z,12.30
2023-03-30T14:33:40.867Z,12.46
2023-03-30T14:36:09.796Z,12.48
2023-03-30T14:38:39.414Z,12.48
2023-03-30T14:41:13.674Z,12.47
2023-03-30T14:43:40.944Z,12.87
2023-03-30T14:46:11.722Z,12.66
2023-03-30T14:48:41.568Z,13.04
2023-03-30T14:51:20.449Z,13.04
2023-03-30T14:53:46.943Z,12.82
2023-03-30T14:56:13.643Z,12.77
2023-03-30T14:58:40.601Z,12.90
2023-03-30T15:01:09.861Z,12.17
2023-03-30T15:03:37.432Z,12.63
2023-03-30T15:06:06.988Z,12.09
2023-03-30T15:08:37.369Z,12.10
2023-03-30T15:11:09.822Z,12.36
2023-03-30T15:13:39.822Z,12.27
2023-03-30T15:16:07.227Z,12.59
2023-03-30T15:18:35.256Z,12.52
2023-03-30T15:21:02.252Z,12.18
2023-03-30T15:23:36.634Z,12.55
2023-03-30T15:26:06.651Z,12.98
2023-03-30T15:28:38.563Z,12.75
2023-03-30T15:31:05.563Z,12.14
2023-03-30T15:33:36.812Z,12.98
2023-03-30T15:36:13.425Z,13.10
2023-03-30T15:38:46.902Z,13.27
2023-03-30T15:41:15.659Z,13.41
2023-03-30T15:44:10.416Z,13.19
2023-03-30T15:46:37.648Z,13.19
2023-03-30T15:49:05.155Z,13.20
2023-03-30T15:51:39.006Z,13.37
2023-03-30T15:54:13.802Z,13.77
2023-03-30T15:56:41.129Z,12.93
2023-03-30T15:59:20.069Z,12.95
2023-03-30T16:01:53.887Z,13.15
2023-03-30T16:04:26.281Z,12.99
2023-03-30T16:06:53.562Z,12.86
2023-03-30T16:09:20.219Z,13.33
2023-03-30T16:11:47.048Z,12.78
2023-03-30T16:14:17.407Z,13.07
2023-03-30T16:16:44.491Z,12.84
2023-03-30T16:19:12.880Z,12.81
2023-03-30T16:21:44.038Z,12.90
2023-03-30T16:24:11.948Z,13.10
2023-03-30T16:26:41.688Z,12.90
2023-03-30T16:29:24.322Z,12.80
2023-03-30T16:31:51.638Z,13.27
2023-03-30T16:34:24.632Z,12.45
2023-03-30T16:36:52.332Z,12.99
2023-03-30T16:39:21.444Z,12.81
2023-03-30T16:41:49.480Z,13.43
2023-03-30T16:44:21.205Z,12.53
2023-03-30T16:46:48.341Z,12.24
2023-03-30T16:49:21.659Z,12.61
2023-03-30T16:51:48.484Z,12.80
2023-03-30T16:54:29.399Z,13.06
2023-03-30T16:56:57.626Z,12.66
2023-03-30T16:59:26.518Z,12.12
2023-03-30T17:01:53.287Z,12.68
2023-03-30T17:04:21.064Z,11.83
2023-03-30T17:06:47.705Z,11.77
2023-03-30T17:09:17.146Z,11.78
2023-03-30T17:11:44.731Z,11.55
2023-03-30T17:14:11.280Z,11.73
2023-03-30T17:16:38.175Z,11.96
2023-03-30T17:19:05.160Z,12.14
2023-03-30T17:21:31.803Z,12.28
2023-03-30T17:23:58.525Z,12.38
2023-03-30T17:26:25.372Z,12.77
2023-03-30T17:28:52.327Z,12.06
2023-03-30T17:31:20.342Z,12.37
2023-03-30T17:33:47.674Z,12.06
2023-03-30T17:36:21.739Z,12.06
2023-03-30T17:38:49.325Z,12.08
2023-03-30T17:41:19.226Z,11.77
2023-03-30T17:43:48.020Z,12.11
2023-03-30T17:46:16.971Z,12.00
2023-03-30T17:48:44.549Z,11.72
2023-03-30T17:51:11.090Z,11.81
2023-03-30T17:53:37.862Z,12.29
2023-03-30T17:56:05.145Z,11.95
2023-03-30T17:58:34.164Z,12.13
2023-03-30T18:01:02.696Z,11.82
2023-03-30T18:03:31.304Z,11.97
2023-03-30T18:06:00.019Z,12.13
2023-03-30T18:08:27.350Z,12.13
2023-03-30T18:10:57.857Z,12.28
2023-03-30T18:13:25.789Z,12.03
2023-03-30T18:15:54.788Z,11.99
2023-03-30T18:18:31.085Z,11.99
2023-03-30T18:21:03.427Z,12.08
2023-03-30T18:25:57.900Z,12.24
2023-03-30T18:28:26.119Z,11.79
2023-03-30T18:30:55.317Z,12.31
2023-03-30T18:33:27.222Z,11.88
2023-03-30T18:35:54.506Z,11.84
2023-03-30T18:38:25.152Z,12.29
2023-03-30T18:40:57.897Z,12.29
2023-03-30T18:43:26.567Z,12.47
2023-03-30T18:45:54.510Z,12.32
2023-03-30T18:48:23.727Z,12.02
2023-03-30T18:50:53.940Z,12.03
2023-03-30T18:53:36.714Z,12.29
2023-03-30T18:56:03.819Z,11.70
2023-03-30T18:58:54.218Z,12.02
2023-03-30T19:01:25.975Z,12.36
2023-03-30T19:03:53.556Z,12.10
2023-03-30T19:06:24.863Z,12.31
2023-03-30T19:08:51.461Z,12.00
2023-03-30T19:11:23.322Z,12.24
2023-03-30T19:13:50.047Z,11.93
2023-03-30T19:16:20.205Z,12.33
2023-03-30T19:18:46.761Z,12.61
2023-03-30T19:21:17.914Z,12.21
2023-03-30T19:23:44.572Z,12.51
2023-03-30T19:26:12.689Z,12.10
2023-03-30T19:28:40.533Z,12.14
2023-03-30T19:31:13.432Z,12.33
2023-03-30T19:33:52.283Z,12.29
2023-03-30T19:36:23.971Z,12.14
2023-03-30T19:38:51.601Z,12.39
2023-03-30T19:41:18.159Z,12.66
2023-03-30T19:43:45.572Z,11.97
2023-03-30T19:46:14.205Z,12.32
2023-03-30T19:48:40.809Z,12.92
2023-03-30T19:51:07.540Z,12.36
2023-03-30T19:53:35.431Z,12.19
2023-03-30T19:56:01.909Z,12.16
2023-03-30T19:58:28.383Z,12.67
2023-03-30T20:00:55.541Z,12.55
2023-03-30T20:03:22.142Z,12.67
2023-03-30T20:05:50.385Z,12.36
2023-03-30T20:08:23.865Z,12.50
2023-03-30T20:10:59.499Z,11.78
2023-03-30T20:13:27.308Z,12.20
2023-03-30T20:15:55.121Z,12.28
2023-03-30T20:18:21.649Z,12.45
2023-03-30T20:20:48.176Z,12.05
2023-03-30T20:23:14.631Z,12.35
2023-03-30T20:25:49.270Z,12.23
2023-03-30T20:28:16.770Z,12.08
2023-03-30T20:30:43.313Z,11.50
2023-03-30T20:33:11.020Z,11.94
2023-03-30T20:35:38.271Z,12.04
2023-03-30T20:38:06.225Z,11.87
2023-03-30T20:40:32.926Z,11.98
2023-03-30T20:43:03.360Z,11.86
2023-03-30T20:45:31.877Z,12.15
2023-03-30T20:47:59.792Z,12.41
2023-03-30T20:50:27.201Z,12.31
2023-03-30T20:52:53.862Z,12.01
2023-03-30T20:55:20.343Z,12.00
2023-03-30T20:57:48.357Z,12.39
2023-03-30T21:00:15.626Z,12.50
2023-03-30T21:02:43.001Z,12.49
2023-03-30T21:05:09.718Z,12.08
2023-03-30T21:07:38.398Z,11.69
2023-03-30T21:10:05.815Z,11.58
2023-03-30T21:12:32.353Z,12.14
2023-03-30T21:14:58.805Z,12.36
2023-03-30T21:17:25.931Z,12.48
2023-03-30T21:19:52.885Z,12.78
2023-03-30T21:22:19.469Z,12.52
2023-03-30T21:24:46.264Z,12.56
2023-03-30T21:27:14.482Z,12.43
2023-03-30T21:29:41.709Z,12.20
2023-03-30T21:32:08.620Z,12.76
2023-03-30T21:34:35.082Z,12.63
2023-03-30T21:37:01.640Z,12.55
2023-03-30T21:39:28.180Z,12.81
2023-03-30T21:41:55.371Z,12.38
2023-03-30T21:44:22.451Z,12.31
2023-03-30T21:46:49.096Z,12.32
2023-03-30T21:49:16.153Z,12.46
2023-03-30T21:51:42.653Z,12.73
2023-03-30T21:54:09.702Z,12.33
2023-03-30T21:56:36.445Z,12.91
2023-03-30T21:59:03.195Z,12.52
2023-03-30T22:01:31.075Z,12.56
2023-03-30T22:03:57.991Z,12.83
2023-03-30T22:06:24.565Z,12.97
2023-03-30T22:08:51.318Z,13.18
2023-03-30T22:11:22.936Z,12.48
2023-03-30T22:13:50.169Z,13.23
2023-03-30T22:16:33.398Z,13.13
2023-03-30T22:19:00.027Z,12.56
2023-03-30T22:21:34.256Z,12.45
2023-03-30T22:24:02.416Z,12.86
2023-03-30T22:26:28.902Z,12.96
2023-03-30T22:28:56.236Z,12.81
2023-03-30T22:31:22.775Z,13.00
2023-03-30T22:33:49.345Z,12.88
2023-03-30T22:36:19.308Z,12.71
2023-03-30T22:38:47.231Z,13.11
2023-03-30T22:41:14.033Z,12.63
2023-03-30T22:43:41.121Z,12.76
2023-03-30T22:46:08.233Z,12.82
2023-03-30T22:48:35.672Z,12.73
2023-03-30T22:51:03.966Z,12.79
2023-03-30T22:53:31.497Z,12.86
2023-03-30T22:55:58.058Z,12.74
2023-03-30T22:58:24.546Z,12.49
2023-03-30T23:00:51.350Z,12.81
2023-03-30T23:03:18.260Z,12.63
2023-03-30T23:05:51.637Z,12.54
2023-03-30T23:08:18.485Z,12.29
2023-03-30T23:10:45.175Z,12.65
2023-03-30T23:13:11.684Z,12.34
2023-03-30T23:15:38.132Z,12.14
2023-03-30T23:18:05.999Z,12.33
2023-03-30T23:20:32.552Z,12.62
2023-03-30T23:22:59.019Z,12.51
2023-03-30T23:25:26.656Z,12.69
2023-03-30T23:27:53.191Z,12.74
2023-03-30T23:30:19.777Z,12.75
2023-03-30T23:32:46.277Z,12.60
2023-03-30T23:35:13.416Z,12.50
2023-03-30T23:37:40.243Z,12.49
2023-03-30T23:40:08.019Z,12.66
2023-03-30T23:42:34.573Z,12.00
2023-03-30T23:45:01.254Z,12.32
2023-03-30T23:47:27.872Z,12.53
2023-03-30T23:49:54.430Z,12.47
2023-03-30T23:52:21.166Z,12.51
2023-03-30T23:54:53.935Z,12.42
2023-03-30T23:57:20.666Z,12.53
2023-03-30T23:59:47.164Z,12.60
